sensor_id;sensor_type;location;lat;lon;timestamp;P1;durP1;ratioP1;P2;durP2;ratioP2
38940;SDS011;43236;47.208;7.518;2022-10-23T00:00:50;9.63;;;2.92;;
38940;SDS011;43236;47.208;7.518;2022-10-23T00:03:37;12.15;;;3.00;;
38940;SDS011;43236;47.208;7.518;2022-10-23T00:06:25;10.27;;;3.50;;
38940;SDS011;43236;47.208;7.518;2022-10-23T00:09:14;6.25;;;3.22;;
38940;SDS011;43236;47.208;7.518;2022-10-23T00:12:02;11.45;;;4.13;;
38940;SDS011;43236;47.208;7.518;2022-10-23T00:14:50;14.95;;;3.50;;
38940;SDS011;43236;47.208;7.518;2022-10-23T00:17:38;8.93;;;3.58;;
38940;SDS011;43236;47.208;7.518;2022-10-23T00:20:25;8.40;;;2.88;;
38940;SDS011;43236;47.208;7.518;2022-10-23T00:23:12;11.27;;;2.50;;
38940;SDS011;43236;47.208;7.518;2022-10-23T00:25:59;10.18;;;2.72;;
38940;SDS011;43236;47.208;7.518;2022-10-23T00:28:48;10.75;;;2.92;;
38940;SDS011;43236;47.208;7.518;2022-10-23T00:31:36;6.93;;;2.50;;
38940;SDS011;43236;47.208;7.518;2022-10-23T00:34:25;10.23;;;3.50;;
38940;SDS011;43236;47.208;7.518;2022-10-23T00:37:12;8.05;;;2.90;;
38940;SDS011;43236;47.208;7.518;2022-10-23T00:39:59;8.13;;;2.53;;
38940;SDS011;43236;47.208;7.518;2022-10-23T00:42:46;6.95;;;2.35;;
38940;SDS011;43236;47.208;7.518;2022-10-23T00:45:33;5.63;;;2.45;;
38940;SDS011;43236;47.208;7.518;2022-10-23T00:48:20;18.42;;;3.10;;
38940;SDS011;43236;47.208;7.518;2022-10-23T00:51:09;8.55;;;3.35;;
38940;SDS011;43236;47.208;7.518;2022-10-23T00:53:57;11.27;;;3.13;;
38940;SDS011;43236;47.208;7.518;2022-10-23T00:56:46;9.10;;;3.22;;
38940;SDS011;43236;47.208;7.518;2022-10-23T00:59:34;7.78;;;3.15;;
38940;SDS011;43236;47.208;7.518;2022-10-23T01:02:21;14.13;;;3.30;;
38940;SDS011;43236;47.208;7.518;2022-10-23T01:05:08;10.02;;;3.85;;
38940;SDS011;43236;47.208;7.518;2022-10-23T01:07:59;6.55;;;3.92;;
38940;SDS011;43236;47.208;7.518;2022-10-23T01:10:53;7.68;;;4.10;;
38940;SDS011;43236;47.208;7.518;2022-10-23T01:13:47;12.02;;;3.60;;
38940;SDS011;43236;47.208;7.518;2022-10-23T01:16:40;9.00;;;3.55;;
38940;SDS011;43236;47.208;7.518;2022-10-23T01:19:39;11.32;;;3.90;;
38940;SDS011;43236;47.208;7.518;2022-10-23T01:22:37;9.30;;;3.53;;
38940;SDS011;43236;47.208;7.518;2022-10-23T01:25:52;8.05;;;3.88;;
38940;SDS011;43236;47.208;7.518;2022-10-23T01:29:04;8.05;;;3.40;;
38940;SDS011;43236;47.208;7.518;2022-10-23T01:34:46;12.77;;;3.20;;
38940;SDS011;43236;47.208;7.518;2022-10-23T01:37:37;6.65;;;3.42;;
38940;SDS011;43236;47.208;7.518;2022-10-23T01:40:28;12.75;;;4.25;;
38940;SDS011;43236;47.208;7.518;2022-10-23T01:43:19;15.20;;;4.05;;
38940;SDS011;43236;47.208;7.518;2022-10-23T01:46:14;12.23;;;3.83;;
38940;SDS011;43236;47.208;7.518;2022-10-23T01:49:03;10.52;;;3.95;;
38940;SDS011;43236;47.208;7.518;2022-10-23T01:51:54;6.82;;;3.80;;
38940;SDS011;43236;47.208;7.518;2022-10-23T01:54:44;12.07;;;3.28;;
38940;SDS011;43236;47.208;7.518;2022-10-23T01:57:34;6.28;;;3.40;;
38940;SDS011;43236;47.208;7.518;2022-10-23T02:00:24;8.35;;;3.60;;
38940;SDS011;43236;47.208;7.518;2022-10-23T02:03:13;15.32;;;4.20;;
38940;SDS011;43236;47.208;7.518;2022-10-23T02:06:03;9.57;;;3.50;;
38940;SDS011;43236;47.208;7.518;2022-10-23T02:08:50;10.40;;;3.58;;
38940;SDS011;43236;47.208;7.518;2022-10-23T02:11:38;9.30;;;3.75;;
38940;SDS011;43236;47.208;7.518;2022-10-23T02:14:36;6.60;;;3.47;;
38940;SDS011;43236;47.208;7.518;2022-10-23T02:17:32;8.05;;;3.30;;
38940;SDS011;43236;47.208;7.518;2022-10-23T02:20:31;5.85;;;3.05;;
38940;SDS011;43236;47.208;7.518;2022-10-23T02:23:24;8.15;;;3.55;;
38940;SDS011;43236;47.208;7.518;2022-10-23T02:26:16;13.15;;;3.45;;
38940;SDS011;43236;47.208;7.518;2022-10-23T02:29:08;8.10;;;3.58;;
38940;SDS011;43236;47.208;7.518;2022-10-23T02:31:59;10.55;;;3.25;;
38940;SDS011;43236;47.208;7.518;2022-10-23T02:34:47;9.10;;;3.13;;
38940;SDS011;43236;47.208;7.518;2022-10-23T02:37:35;7.80;;;3.65;;
38940;SDS011;43236;47.208;7.518;2022-10-23T02:40:23;8.32;;;3.15;;
38940;SDS011;43236;47.208;7.518;2022-10-23T02:43:12;12.55;;;2.97;;
38940;SDS011;43236;47.208;7.518;2022-10-23T02:46:05;7.60;;;3.28;;
38940;SDS011;43236;47.208;7.518;2022-10-23T02:49:01;11.10;;;3.60;;
38940;SDS011;43236;47.208;7.518;2022-10-23T02:52:00;14.02;;;4.00;;
38940;SDS011;43236;47.208;7.518;2022-10-23T02:55:01;11.20;;;4.20;;
38940;SDS011;43236;47.208;7.518;2022-10-23T02:57:56;12.15;;;4.15;;
38940;SDS011;43236;47.208;7.518;2022-10-23T03:00:49;11.13;;;4.28;;
38940;SDS011;43236;47.208;7.518;2022-10-23T03:03:40;12.65;;;5.15;;
38940;SDS011;43236;47.208;7.518;2022-10-23T03:06:31;15.23;;;5.70;;
38940;SDS011;43236;47.208;7.518;2022-10-23T03:09:18;18.42;;;6.28;;
38940;SDS011;43236;47.208;7.518;2022-10-23T03:12:07;17.52;;;5.93;;
38940;SDS011;43236;47.208;7.518;2022-10-23T03:14:54;15.98;;;5.32;;
38940;SDS011;43236;47.208;7.518;2022-10-23T03:17:41;13.82;;;5.43;;
38940;SDS011;43236;47.208;7.518;2022-10-23T03:20:28;11.85;;;4.75;;
38940;SDS011;43236;47.208;7.518;2022-10-23T03:23:15;15.35;;;4.43;;
38940;SDS011;43236;47.208;7.518;2022-10-23T03:26:02;13.10;;;4.85;;
38940;SDS011;43236;47.208;7.518;2022-10-23T03:28:50;11.70;;;4.05;;
38940;SDS011;43236;47.208;7.518;2022-10-23T03:31:38;16.77;;;3.40;;
38940;SDS011;43236;47.208;7.518;2022-10-23T03:34:25;9.70;;;3.28;;
38940;SDS011;43236;47.208;7.518;2022-10-23T03:37:12;11.85;;;3.50;;
38940;SDS011;43236;47.208;7.518;2022-10-23T03:39:59;7.43;;;3.50;;
38940;SDS011;43236;47.208;7.518;2022-10-23T03:42:46;6.53;;;3.50;;
38940;SDS011;43236;47.208;7.518;2022-10-23T03:45:34;5.68;;;3.30;;
38940;SDS011;43236;47.208;7.518;2022-10-23T03:48:22;7.57;;;3.50;;
38940;SDS011;43236;47.208;7.518;2022-10-23T03:51:10;9.10;;;3.40;;
38940;SDS011;43236;47.208;7.518;2022-10-23T03:53:57;10.98;;;3.60;;
38940;SDS011;43236;47.208;7.518;2022-10-23T03:56:44;11.05;;;3.53;;
38940;SDS011;43236;47.208;7.518;2022-10-23T03:59:31;6.38;;;3.53;;
38940;SDS011;43236;47.208;7.518;2022-10-23T04:02:19;10.05;;;4.50;;
38940;SDS011;43236;47.208;7.518;2022-10-23T04:05:06;13.88;;;4.13;;
38940;SDS011;43236;47.208;7.518;2022-10-23T04:07:53;11.15;;;4.55;;
38940;SDS011;43236;47.208;7.518;2022-10-23T04:10:40;11.63;;;4.65;;
38940;SDS011;43236;47.208;7.518;2022-10-23T04:13:27;10.32;;;5.45;;
38940;SDS011;43236;47.208;7.518;2022-10-23T04:16:14;14.90;;;4.47;;
38940;SDS011;43236;47.208;7.518;2022-10-23T04:19:03;14.30;;;5.00;;
38940;SDS011;43236;47.208;7.518;2022-10-23T04:21:50;10.98;;;4.65;;
38940;SDS011;43236;47.208;7.518;2022-10-23T04:24:37;11.43;;;4.60;;
38940;SDS011;43236;47.208;7.518;2022-10-23T04:27:29;9.88;;;4.15;;
38940;SDS011;43236;47.208;7.518;2022-10-23T04:30:16;9.57;;;4.88;;
38940;SDS011;43236;47.208;7.518;2022-10-23T04:33:03;13.32;;;4.28;;
38940;SDS011;43236;47.208;7.518;2022-10-23T04:35:52;8.93;;;4.45;;
38940;SDS011;43236;47.208;7.518;2022-10-23T04:38:39;20.27;;;4.18;;
38940;SDS011;43236;47.208;7.518;2022-10-23T04:41:26;19.40;;;5.00;;
38940;SDS011;43236;47.208;7.518;2022-10-23T04:44:13;15.75;;;4.72;;
38940;SDS011;43236;47.208;7.518;2022-10-23T04:47:00;13.35;;;4.45;;
38940;SDS011;43236;47.208;7.518;2022-10-23T04:49:47;8.75;;;3.97;;
38940;SDS011;43236;47.208;7.518;2022-10-23T04:52:36;16.90;;;4.03;;
38940;SDS011;43236;47.208;7.518;2022-10-23T04:55:23;7.75;;;3.97;;
38940;SDS011;43236;47.208;7.518;2022-10-23T04:58:10;9.90;;;4.25;;
38940;SDS011;43236;47.208;7.518;2022-10-23T05:00:57;9.40;;;3.60;;
38940;SDS011;43236;47.208;7.518;2022-10-23T05:03:44;8.85;;;3.50;;
38940;SDS011;43236;47.208;7.518;2022-10-23T05:06:32;12.00;;;4.22;;
38940;SDS011;43236;47.208;7.518;2022-10-23T05:09:20;20.75;;;3.83;;
38940;SDS011;43236;47.208;7.518;2022-10-23T05:12:08;5.45;;;3.00;;
38940;SDS011;43236;47.208;7.518;2022-10-23T05:14:55;6.97;;;3.80;;
38940;SDS011;43236;47.208;7.518;2022-10-23T05:17:42;19.77;;;3.90;;
38940;SDS011;43236;47.208;7.518;2022-10-23T05:20:32;14.43;;;4.53;;
38940;SDS011;43236;47.208;7.518;2022-10-23T05:23:22;13.70;;;3.83;;
38940;SDS011;43236;47.208;7.518;2022-10-23T05:26:12;13.90;;;4.30;;
38940;SDS011;43236;47.208;7.518;2022-10-23T05:28:59;19.30;;;4.22;;
38940;SDS011;43236;47.208;7.518;2022-10-23T05:31:46;10.73;;;4.70;;
38940;SDS011;43236;47.208;7.518;2022-10-23T05:34:35;11.48;;;4.38;;
38940;SDS011;43236;47.208;7.518;2022-10-23T05:37:23;11.98;;;5.13;;
38940;SDS011;43236;47.208;7.518;2022-10-23T05:40:11;14.15;;;4.75;;
38940;SDS011;43236;47.208;7.518;2022-10-23T05:43:00;9.25;;;4.70;;
38940;SDS011;43236;47.208;7.518;2022-10-23T05:45:47;12.40;;;4.30;;
38940;SDS011;43236;47.208;7.518;2022-10-23T05:48:34;11.73;;;3.90;;
38940;SDS011;43236;47.208;7.518;2022-10-23T05:51:21;23.95;;;3.60;;
38940;SDS011;43236;47.208;7.518;2022-10-23T05:54:08;15.65;;;3.28;;
38940;SDS011;43236;47.208;7.518;2022-10-23T05:56:55;9.05;;;3.78;;
38940;SDS011;43236;47.208;7.518;2022-10-23T05:59:43;10.73;;;3.20;;
38940;SDS011;43236;47.208;7.518;2022-10-23T06:02:31;19.13;;;3.40;;
38940;SDS011;43236;47.208;7.518;2022-10-23T06:05:18;12.93;;;3.97;;
38940;SDS011;43236;47.208;7.518;2022-10-23T06:08:05;11.80;;;3.63;;
38940;SDS011;43236;47.208;7.518;2022-10-23T06:10:53;15.75;;;3.08;;
38940;SDS011;43236;47.208;7.518;2022-10-23T06:13:41;7.95;;;3.67;;
38940;SDS011;43236;47.208;7.518;2022-10-23T06:16:31;22.77;;;3.83;;
38940;SDS011;43236;47.208;7.518;2022-10-23T06:19:18;20.00;;;3.88;;
38940;SDS011;43236;47.208;7.518;2022-10-23T06:22:05;20.08;;;3.20;;
38940;SDS011;43236;47.208;7.518;2022-10-23T06:24:52;19.58;;;3.35;;
38940;SDS011;43236;47.208;7.518;2022-10-23T06:27:39;20.95;;;3.85;;
38940;SDS011;43236;47.208;7.518;2022-10-23T06:30:26;17.88;;;3.38;;
38940;SDS011;43236;47.208;7.518;2022-10-23T06:33:15;14.07;;;3.45;;
38940;SDS011;43236;47.208;7.518;2022-10-23T06:36:02;34.97;;;3.92;;
38940;SDS011;43236;47.208;7.518;2022-10-23T06:38:52;16.25;;;4.20;;
38940;SDS011;43236;47.208;7.518;2022-10-23T06:41:40;16.65;;;3.67;;
38940;SDS011;43236;47.208;7.518;2022-10-23T06:44:28;13.30;;;3.55;;
38940;SDS011;43236;47.208;7.518;2022-10-23T06:47:15;23.67;;;3.28;;
38940;SDS011;43236;47.208;7.518;2022-10-23T06:50:04;8.90;;;3.75;;
38940;SDS011;43236;47.208;7.518;2022-10-23T06:52:52;19.70;;;3.80;;
38940;SDS011;43236;47.208;7.518;2022-10-23T06:55:39;14.73;;;3.40;;
38940;SDS011;43236;47.208;7.518;2022-10-23T06:58:26;17.48;;;3.10;;
38940;SDS011;43236;47.208;7.518;2022-10-23T07:01:13;19.23;;;3.15;;
38940;SDS011;43236;47.208;7.518;2022-10-23T07:04:01;7.82;;;3.40;;
38940;SDS011;43236;47.208;7.518;2022-10-23T07:06:50;8.82;;;3.30;;
38940;SDS011;43236;47.208;7.518;2022-10-23T07:09:37;7.40;;;3.05;;
38940;SDS011;43236;47.208;7.518;2022-10-23T07:12:24;13.05;;;2.88;;
38940;SDS011;43236;47.208;7.518;2022-10-23T07:15:11;7.68;;;2.83;;
38940;SDS011;43236;47.208;7.518;2022-10-23T07:17:58;5.45;;;3.40;;
38940;SDS011;43236;47.208;7.518;2022-10-23T07:20:45;13.45;;;3.15;;
38940;SDS011;43236;47.208;7.518;2022-10-23T07:23:35;6.55;;;3.00;;
38940;SDS011;43236;47.208;7.518;2022-10-23T07:26:22;5.57;;;2.88;;
38940;SDS011;43236;47.208;7.518;2022-10-23T07:29:09;10.52;;;3.20;;
38940;SDS011;43236;47.208;7.518;2022-10-23T07:31:57;5.47;;;2.65;;
38940;SDS011;43236;47.208;7.518;2022-10-23T07:34:45;5.50;;;3.08;;
38940;SDS011;43236;47.208;7.518;2022-10-23T07:37:32;4.30;;;2.47;;
38940;SDS011;43236;47.208;7.518;2022-10-23T07:40:21;4.82;;;3.08;;
38940;SDS011;43236;47.208;7.518;2022-10-23T07:43:08;5.30;;;3.05;;
38940;SDS011;43236;47.208;7.518;2022-10-23T07:45:55;9.80;;;3.38;;
38940;SDS011;43236;47.208;7.518;2022-10-23T07:48:42;7.82;;;3.70;;
38940;SDS011;43236;47.208;7.518;2022-10-23T07:51:29;12.40;;;3.80;;
38940;SDS011;43236;47.208;7.518;2022-10-23T07:54:16;9.02;;;3.55;;
38940;SDS011;43236;47.208;7.518;2022-10-23T07:57:04;8.73;;;3.60;;
38940;SDS011;43236;47.208;7.518;2022-10-23T07:59:52;11.65;;;3.85;;
38940;SDS011;43236;47.208;7.518;2022-10-23T08:02:39;6.15;;;3.50;;
38940;SDS011;43236;47.208;7.518;2022-10-23T08:05:26;12.70;;;4.60;;
38940;SDS011;43236;47.208;7.518;2022-10-23T08:08:13;8.93;;;4.30;;
38940;SDS011;43236;47.208;7.518;2022-10-23T08:11:00;6.65;;;3.85;;
38940;SDS011;43236;47.208;7.518;2022-10-23T08:13:49;8.68;;;4.13;;
38940;SDS011;43236;47.208;7.518;2022-10-23T08:16:36;11.55;;;4.00;;
38940;SDS011;43236;47.208;7.518;2022-10-23T08:19:24;8.10;;;4.68;;
38940;SDS011;43236;47.208;7.518;2022-10-23T08:22:11;7.13;;;3.90;;
38940;SDS011;43236;47.208;7.518;2022-10-23T08:24:58;6.90;;;3.70;;
38940;SDS011;43236;47.208;7.518;2022-10-23T08:27:45;6.93;;;4.15;;
38940;SDS011;43236;47.208;7.518;2022-10-23T08:30:34;9.60;;;3.70;;
38940;SDS011;43236;47.208;7.518;2022-10-23T08:33:22;8.65;;;4.50;;
38940;SDS011;43236;47.208;7.518;2022-10-23T08:36:14;11.25;;;4.05;;
38940;SDS011;43236;47.208;7.518;2022-10-23T08:39:03;6.45;;;3.65;;
38940;SDS011;43236;47.208;7.518;2022-10-23T08:41:51;8.10;;;4.10;;
38940;SDS011;43236;47.208;7.518;2022-10-23T08:44:39;8.23;;;4.60;;
38940;SDS011;43236;47.208;7.518;2022-10-23T08:47:38;7.55;;;4.28;;
38940;SDS011;43236;47.208;7.518;2022-10-23T08:50:31;6.95;;;4.25;;
38940;SDS011;43236;47.208;7.518;2022-10-23T08:53:25;6.63;;;3.92;;
38940;SDS011;43236;47.208;7.518;2022-10-23T08:56:18;8.60;;;4.03;;
38940;SDS011;43236;47.208;7.518;2022-10-23T08:59:12;8.43;;;4.60;;
38940;SDS011;43236;47.208;7.518;2022-10-23T09:02:09;7.07;;;3.88;;
38940;SDS011;43236;47.208;7.518;2022-10-23T09:05:05;7.43;;;4.28;;
38940;SDS011;43236;47.208;7.518;2022-10-23T09:11:10;6.32;;;3.97;;
38940;SDS011;43236;47.208;7.518;2022-10-23T09:14:17;8.40;;;3.63;;
38940;SDS011;43236;47.208;7.518;2022-10-23T09:17:23;8.30;;;4.03;;
38940;SDS011;43236;47.208;7.518;2022-10-23T09:20:15;9.15;;;3.70;;
38940;SDS011;43236;47.208;7.518;2022-10-23T09:23:06;9.65;;;4.30;;
38940;SDS011;43236;47.208;7.518;2022-10-23T09:25:59;6.38;;;3.83;;
38940;SDS011;43236;47.208;7.518;2022-10-23T09:28:48;11.60;;;4.22;;
38940;SDS011;43236;47.208;7.518;2022-10-23T09:31:46;7.18;;;4.10;;
38940;SDS011;43236;47.208;7.518;2022-10-23T09:34:33;7.25;;;4.40;;
38940;SDS011;43236;47.208;7.518;2022-10-23T09:37:23;6.45;;;3.33;;
38940;SDS011;43236;47.208;7.518;2022-10-23T09:40:14;6.57;;;3.47;;
38940;SDS011;43236;47.208;7.518;2022-10-23T09:43:13;5.70;;;2.95;;
38940;SDS011;43236;47.208;7.518;2022-10-23T09:46:03;5.13;;;3.03;;
38940;SDS011;43236;47.208;7.518;2022-10-23T09:48:56;8.25;;;3.20;;
38940;SDS011;43236;47.208;7.518;2022-10-23T09:51:48;7.53;;;3.40;;
38940;SDS011;43236;47.208;7.518;2022-10-23T09:54:47;5.72;;;3.55;;
38940;SDS011;43236;47.208;7.518;2022-10-23T09:57:36;6.32;;;3.72;;
38940;SDS011;43236;47.208;7.518;2022-10-23T10:00:27;10.50;;;3.80;;
38940;SDS011;43236;47.208;7.518;2022-10-23T10:03:18;5.68;;;3.45;;
38940;SDS011;43236;47.208;7.518;2022-10-23T10:06:18;9.13;;;3.72;;
38940;SDS011;43236;47.208;7.518;2022-10-23T10:09:10;8.35;;;4.00;;
38940;SDS011;43236;47.208;7.518;2022-10-23T10:12:04;5.85;;;3.53;;
38940;SDS011;43236;47.208;7.518;2022-10-23T10:15:07;8.77;;;3.80;;
38940;SDS011;43236;47.208;7.518;2022-10-23T10:18:02;8.90;;;4.85;;
38940;SDS011;43236;47.208;7.518;2022-10-23T10:21:00;6.53;;;4.10;;
38940;SDS011;43236;47.208;7.518;2022-10-23T10:23:56;5.93;;;3.70;;
38940;SDS011;43236;47.208;7.518;2022-10-23T10:26:50;5.63;;;3.53;;
38940;SDS011;43236;47.208;7.518;2022-10-23T10:29:48;7.57;;;4.28;;
38940;SDS011;43236;47.208;7.518;2022-10-23T10:32:46;14.88;;;6.93;;
38940;SDS011;43236;47.208;7.518;2022-10-23T10:35:40;10.27;;;5.55;;
38940;SDS011;43236;47.208;7.518;2022-10-23T10:38:38;6.47;;;4.00;;
38940;SDS011;43236;47.208;7.518;2022-10-23T10:41:39;6.75;;;3.90;;
38940;SDS011;43236;47.208;7.518;2022-10-23T10:47:30;6.90;;;4.22;;
38940;SDS011;43236;47.208;7.518;2022-10-23T10:50:25;6.75;;;3.33;;
38940;SDS011;43236;47.208;7.518;2022-10-23T10:53:19;5.05;;;2.85;;
38940;SDS011;43236;47.208;7.518;2022-10-23T10:56:10;5.28;;;3.20;;
38940;SDS011;43236;47.208;7.518;2022-10-23T10:59:01;5.75;;;3.40;;
38940;SDS011;43236;47.208;7.518;2022-10-23T11:01:58;4.90;;;2.88;;
38940;SDS011;43236;47.208;7.518;2022-10-23T11:04:53;5.03;;;3.00;;
38940;SDS011;43236;47.208;7.518;2022-10-23T11:07:50;14.85;;;7.65;;
38940;SDS011;43236;47.208;7.518;2022-10-23T11:10:42;8.88;;;4.68;;
38940;SDS011;43236;47.208;7.518;2022-10-23T11:13:32;4.75;;;2.50;;
38940;SDS011;43236;47.208;7.518;2022-10-23T11:16:22;5.00;;;2.20;;
38940;SDS011;43236;47.208;7.518;2022-10-23T11:19:15;4.20;;;2.47;;
38940;SDS011;43236;47.208;7.518;2022-10-23T11:22:08;5.22;;;2.60;;
38940;SDS011;43236;47.208;7.518;2022-10-23T11:28:16;5.03;;;1.98;;
38940;SDS011;43236;47.208;7.518;2022-10-23T11:31:12;3.15;;;1.88;;
38940;SDS011;43236;47.208;7.518;2022-10-23T11:34:11;4.70;;;2.20;;
38940;SDS011;43236;47.208;7.518;2022-10-23T11:37:34;3.90;;;1.92;;
38940;SDS011;43236;47.208;7.518;2022-10-23T11:40:22;3.97;;;2.22;;
38940;SDS011;43236;47.208;7.518;2022-10-23T11:43:10;4.03;;;2.35;;
38940;SDS011;43236;47.208;7.518;2022-10-23T11:45:57;4.78;;;2.60;;
38940;SDS011;43236;47.208;7.518;2022-10-23T11:48:57;9.70;;;3.05;;
38940;SDS011;43236;47.208;7.518;2022-10-23T11:51:46;6.55;;;3.00;;
38940;SDS011;43236;47.208;7.518;2022-10-23T11:54:45;9.18;;;2.97;;
38940;SDS011;43236;47.208;7.518;2022-10-23T11:57:32;6.00;;;2.70;;
38940;SDS011;43236;47.208;7.518;2022-10-23T12:00:20;5.97;;;2.90;;
38940;SDS011;43236;47.208;7.518;2022-10-23T12:03:13;6.15;;;3.10;;
38940;SDS011;43236;47.208;7.518;2022-10-23T12:06:04;5.53;;;2.75;;
38940;SDS011;43236;47.208;7.518;2022-10-23T12:08:53;8.32;;;2.65;;
38940;SDS011;43236;47.208;7.518;2022-10-23T12:11:46;5.20;;;2.63;;
38940;SDS011;43236;47.208;7.518;2022-10-23T12:14:36;7.90;;;2.75;;
38940;SDS011;43236;47.208;7.518;2022-10-23T12:17:27;4.50;;;2.50;;
38940;SDS011;43236;47.208;7.518;2022-10-23T12:20:34;5.43;;;2.78;;
38940;SDS011;43236;47.208;7.518;2022-10-23T12:27:05;7.32;;;2.90;;
38940;SDS011;43236;47.208;7.518;2022-10-23T12:30:11;5.70;;;3.00;;
38940;SDS011;43236;47.208;7.518;2022-10-23T12:33:09;5.82;;;2.80;;
38940;SDS011;43236;47.208;7.518;2022-10-23T12:36:11;4.50;;;2.60;;
38940;SDS011;43236;47.208;7.518;2022-10-23T12:39:25;4.10;;;2.40;;
38940;SDS011;43236;47.208;7.518;2022-10-23T12:42:14;6.07;;;2.83;;
38940;SDS011;43236;47.208;7.518;2022-10-23T12:45:13;5.80;;;3.17;;
38940;SDS011;43236;47.208;7.518;2022-10-23T12:48:02;4.97;;;2.63;;
38940;SDS011;43236;47.208;7.518;2022-10-23T12:50:51;8.38;;;2.83;;
38940;SDS011;43236;47.208;7.518;2022-10-23T12:53:39;10.13;;;3.38;;
38940;SDS011;43236;47.208;7.518;2022-10-23T12:56:32;7.82;;;3.28;;
38940;SDS011;43236;47.208;7.518;2022-10-23T12:59:31;9.07;;;2.70;;
38940;SDS011;43236;47.208;7.518;2022-10-23T13:02:23;5.10;;;2.95;;
38940;SDS011;43236;47.208;7.518;2022-10-23T13:05:13;5.53;;;3.00;;
38940;SDS011;43236;47.208;7.518;2022-10-23T13:08:03;6.22;;;2.80;;
38940;SDS011;43236;47.208;7.518;2022-10-23T13:10:51;5.47;;;3.00;;
38940;SDS011;43236;47.208;7.518;2022-10-23T13:13:38;5.78;;;3.00;;
38940;SDS011;43236;47.208;7.518;2022-10-23T13:16:28;7.47;;;2.67;;
38940;SDS011;43236;47.208;7.518;2022-10-23T13:19:22;5.90;;;2.50;;
38940;SDS011;43236;47.208;7.518;2022-10-23T13:22:13;3.85;;;2.05;;
38940;SDS011;43236;47.208;7.518;2022-10-23T13:25:18;4.90;;;2.10;;
38940;SDS011;43236;47.208;7.518;2022-10-23T13:28:15;5.18;;;2.53;;
38940;SDS011;43236;47.208;7.518;2022-10-23T13:31:22;5.10;;;2.63;;
38940;SDS011;43236;47.208;7.518;2022-10-23T13:34:21;5.50;;;2.47;;
38940;SDS011;43236;47.208;7.518;2022-10-23T13:37:22;6.63;;;2.45;;
38940;SDS011;43236;47.208;7.518;2022-10-23T13:40:19;4.85;;;2.25;;
38940;SDS011;43236;47.208;7.518;2022-10-23T13:43:09;3.97;;;2.20;;
38940;SDS011;43236;47.208;7.518;2022-10-23T13:46:03;3.97;;;2.30;;
38940;SDS011;43236;47.208;7.518;2022-10-23T13:48:52;5.43;;;2.20;;
38940;SDS011;43236;47.208;7.518;2022-10-23T13:51:41;5.35;;;2.00;;
38940;SDS011;43236;47.208;7.518;2022-10-23T13:54:31;6.43;;;2.10;;
38940;SDS011;43236;47.208;7.518;2022-10-23T13:57:18;3.22;;;1.73;;
38940;SDS011;43236;47.208;7.518;2022-10-23T14:00:06;4.10;;;2.08;;
38940;SDS011;43236;47.208;7.518;2022-10-23T14:02:55;4.57;;;1.52;;
38940;SDS011;43236;47.208;7.518;2022-10-23T14:05:42;6.50;;;1.90;;
38940;SDS011;43236;47.208;7.518;2022-10-23T14:08:31;3.35;;;1.67;;
38940;SDS011;43236;47.208;7.518;2022-10-23T14:11:18;5.88;;;2.00;;
38940;SDS011;43236;47.208;7.518;2022-10-23T14:14:05;7.95;;;3.08;;
38940;SDS011;43236;47.208;7.518;2022-10-23T14:16:52;7.15;;;2.08;;
38940;SDS011;43236;47.208;7.518;2022-10-23T14:19:39;3.33;;;1.70;;
38940;SDS011;43236;47.208;7.518;2022-10-23T14:22:26;6.30;;;1.73;;
38940;SDS011;43236;47.208;7.518;2022-10-23T14:25:15;4.93;;;1.80;;
38940;SDS011;43236;47.208;7.518;2022-10-23T14:28:03;5.90;;;2.50;;
38940;SDS011;43236;47.208;7.518;2022-10-23T14:30:50;5.55;;;2.10;;
38940;SDS011;43236;47.208;7.518;2022-10-23T14:33:37;6.65;;;1.70;;
38940;SDS011;43236;47.208;7.518;2022-10-23T14:36:24;4.60;;;2.30;;
38940;SDS011;43236;47.208;7.518;2022-10-23T14:39:12;6.93;;;3.05;;
38940;SDS011;43236;47.208;7.518;2022-10-23T14:42:00;4.13;;;2.08;;
38940;SDS011;43236;47.208;7.518;2022-10-23T14:44:47;4.88;;;2.10;;
38940;SDS011;43236;47.208;7.518;2022-10-23T14:47:34;4.78;;;1.85;;
38940;SDS011;43236;47.208;7.518;2022-10-23T14:50:21;4.20;;;1.70;;
38940;SDS011;43236;47.208;7.518;2022-10-23T14:53:09;3.78;;;1.73;;
38940;SDS011;43236;47.208;7.518;2022-10-23T14:55:59;5.65;;;1.75;;
38940;SDS011;43236;47.208;7.518;2022-10-23T14:58:48;4.97;;;1.70;;
38940;SDS011;43236;47.208;7.518;2022-10-23T15:01:36;5.68;;;1.80;;
38940;SDS011;43236;47.208;7.518;2022-10-23T15:04:24;4.97;;;2.13;;
38940;SDS011;43236;47.208;7.518;2022-10-23T15:07:11;16.40;;;1.88;;
38940;SDS011;43236;47.208;7.518;2022-10-23T15:09:58;3.50;;;1.60;;
38940;SDS011;43236;47.208;7.518;2022-10-23T15:12:45;4.30;;;1.38;;
38940;SDS011;43236;47.208;7.518;2022-10-23T15:15:34;4.50;;;1.63;;
38940;SDS011;43236;47.208;7.518;2022-10-23T15:18:21;3.40;;;1.30;;
38940;SDS011;43236;47.208;7.518;2022-10-23T15:21:12;7.00;;;1.55;;
38940;SDS011;43236;47.208;7.518;2022-10-23T15:24:00;2.95;;;1.40;;
38940;SDS011;43236;47.208;7.518;2022-10-23T15:26:47;1.75;;;1.02;;
38940;SDS011;43236;47.208;7.518;2022-10-23T15:29:36;3.83;;;1.73;;
38940;SDS011;43236;47.208;7.518;2022-10-23T15:32:25;2.50;;;1.30;;
38940;SDS011;43236;47.208;7.518;2022-10-23T15:35:12;8.23;;;1.52;;
38940;SDS011;43236;47.208;7.518;2022-10-23T15:37:59;2.55;;;1.27;;
38940;SDS011;43236;47.208;7.518;2022-10-23T15:40:46;3.60;;;1.40;;
38940;SDS011;43236;47.208;7.518;2022-10-23T15:43:33;5.82;;;1.67;;
38940;SDS011;43236;47.208;7.518;2022-10-23T15:46:20;5.10;;;1.92;;
38940;SDS011;43236;47.208;7.518;2022-10-23T15:49:09;4.45;;;2.28;;
38940;SDS011;43236;47.208;7.518;2022-10-23T15:51:56;5.28;;;2.13;;
38940;SDS011;43236;47.208;7.518;2022-10-23T15:54:43;5.97;;;2.20;;
38940;SDS011;43236;47.208;7.518;2022-10-23T15:57:30;4.60;;;2.22;;
38940;SDS011;43236;47.208;7.518;2022-10-23T16:00:17;5.22;;;2.47;;
38940;SDS011;43236;47.208;7.518;2022-10-23T16:03:05;6.57;;;1.88;;
38940;SDS011;43236;47.208;7.518;2022-10-23T16:05:53;8.00;;;2.28;;
38940;SDS011;43236;47.208;7.518;2022-10-23T16:08:40;7.45;;;2.08;;
38940;SDS011;43236;47.208;7.518;2022-10-23T16:11:30;6.55;;;2.85;;
38940;SDS011;43236;47.208;7.518;2022-10-23T16:14:19;7.40;;;3.53;;
38940;SDS011;43236;47.208;7.518;2022-10-23T16:17:06;6.35;;;2.60;;
38940;SDS011;43236;47.208;7.518;2022-10-23T16:19:53;6.03;;;2.55;;
38940;SDS011;43236;47.208;7.518;2022-10-23T16:22:41;6.20;;;2.40;;
38940;SDS011;43236;47.208;7.518;2022-10-23T16:25:29;9.48;;;3.60;;
38940;SDS011;43236;47.208;7.518;2022-10-23T16:28:16;6.40;;;2.60;;
38940;SDS011;43236;47.208;7.518;2022-10-23T16:31:06;6.63;;;2.47;;
38940;SDS011;43236;47.208;7.518;2022-10-23T16:33:55;6.30;;;3.00;;
38940;SDS011;43236;47.208;7.518;2022-10-23T16:36:43;6.00;;;2.50;;
38940;SDS011;43236;47.208;7.518;2022-10-23T16:39:31;10.07;;;2.72;;
38940;SDS011;43236;47.208;7.518;2022-10-23T16:42:20;7.75;;;2.83;;
38940;SDS011;43236;47.208;7.518;2022-10-23T16:45:08;13.20;;;2.28;;
38940;SDS011;43236;47.208;7.518;2022-10-23T16:47:55;5.38;;;1.90;;
38940;SDS011;43236;47.208;7.518;2022-10-23T16:50:42;3.70;;;1.67;;
38940;SDS011;43236;47.208;7.518;2022-10-23T16:53:30;4.53;;;1.75;;
38940;SDS011;43236;47.208;7.518;2022-10-23T16:56:20;4.82;;;2.20;;
38940;SDS011;43236;47.208;7.518;2022-10-23T16:59:09;6.03;;;2.25;;
38940;SDS011;43236;47.208;7.518;2022-10-23T17:01:56;6.70;;;2.58;;
38940;SDS011;43236;47.208;7.518;2022-10-23T17:04:43;6.00;;;2.60;;
38940;SDS011;43236;47.208;7.518;2022-10-23T17:07:30;8.23;;;3.00;;
38940;SDS011;43236;47.208;7.518;2022-10-23T17:10:17;8.95;;;3.30;;
38940;SDS011;43236;47.208;7.518;2022-10-23T17:13:06;7.15;;;3.30;;
38940;SDS011;43236;47.208;7.518;2022-10-23T17:16:01;10.35;;;4.57;;